createdAt,value
2023-04-15T08:01:11.112Z,7.29
2023-04-15T08:02:11.152Z,0.48
2023-04-15T08:03:11.293Z,0.68
2023-04-15T08:04:11.117Z,0.36
2023-04-15T08:05:11.119Z,0.26
2023-04-15T08:06:11.070Z,0.42
2023-04-15T08:07:11.060Z,0.54
2023-04-15T08:08:11.006Z,0.39
2023-04-15T08:09:11.023Z,0.32
2023-04-15T08:10:11.019Z,0.43
2023-04-15T08:11:11.039Z,0.60
2023-04-15T08:12:11.021Z,0.40
2023-04-15T08:13:10.984Z,0.54
2023-04-15T08:14:10.978Z,0.44
2023-04-15T08:15:10.972Z,0.41
2023-04-15T08:16:11.022Z,0.50
2023-04-15T08:17:10.997Z,0.47
2023-04-15T08:18:10.945Z,0.47
2023-04-15T08:19:10.937Z,0.43
2023-04-15T08:20:10.969Z,0.28
2023-04-15T08:21:10.948Z,0.59
2023-04-15T08:22:17.846Z,0.48
2023-04-15T08:23:11.936Z,0.60
2023-04-15T08:24:10.912Z,0.61
2023-04-15T08:25:10.945Z,0.48
2023-04-15T08:26:10.897Z,0.30
2023-04-15T08:27:10.889Z,0.54
2023-04-15T08:28:10.860Z,0.39
2023-04-15T08:29:10.894Z,0.43
2023-04-15T08:30:10.865Z,0.48
2023-04-15T08:31:10.914Z,0.36
2023-04-15T08:32:10.850Z,0.55
2023-04-15T08:33:10.848Z,0.40
2023-04-15T08:34:10.893Z,0.46
2023-04-15T08:35:10.952Z,0.38
2023-04-15T08:36:10.971Z,0.43
2023-04-15T08:37:12.573Z,0.45
2023-04-15T08:38:11.119Z,0.42
2023-04-15T08:39:11.166Z,0.38
2023-04-15T08:40:11.246Z,0.35
2023-04-15T08:41:11.358Z,0.30
2023-04-15T08:42:11.382Z,0.52
2023-04-15T08:43:11.423Z,0.39
2023-04-15T08:44:11.500Z,0.29
2023-04-15T08:45:11.535Z,0.51
2023-04-15T08:46:11.618Z,0.42
2023-04-15T08:47:11.650Z,0.18
2023-04-15T08:48:11.724Z,0.45
2023-04-15T08:49:11.777Z,0.51
2023-04-15T08:50:11.859Z,0.53
2023-04-15T08:51:11.880Z,0.52
2023-04-15T08:52:11.954Z,0.44
2023-04-15T08:53:11.994Z,0.43
2023-04-15T08:54:12.033Z,0.46
2023-04-15T08:55:12.088Z,0.39
2023-04-15T08:56:12.103Z,0.43
2023-04-15T08:57:12.166Z,0.44
2023-04-15T08:58:12.262Z,0.66
2023-04-15T08:59:12.289Z,0.41
2023-04-15T09:00:12.368Z,0.65
2023-04-15T09:01:12.463Z,0.39
2023-04-15T09:02:12.441Z,0.41
2023-04-15T09:03:12.521Z,0.76
2023-04-15T09:04:12.661Z,0.35
2023-04-15T09:05:12.588Z,0.39
2023-04-15T09:06:12.609Z,0.44
2023-04-15T09:07:12.679Z,0.40
2023-04-15T09:08:12.784Z,0.39
2023-04-15T09:09:12.781Z,0.45
2023-04-15T09:10:12.843Z,0.43
2023-04-15T09:11:12.916Z,0.44
2023-04-15T09:12:12.922Z,0.63
2023-04-15T09:13:12.973Z,0.34
2023-04-15T09:14:13.026Z,0.51
2023-04-15T09:15:13.108Z,0.37
2023-04-15T09:16:13.084Z,0.48
2023-04-15T09:17:13.152Z,0.26
2023-04-15T09:18:13.193Z,0.32
2023-04-15T09:19:13.258Z,0.39
2023-04-15T09:20:13.278Z,1.91
2023-04-15T09:21:13.352Z,2.51
2023-04-15T09:22:13.329Z,2.61
2023-04-15T09:23:13.327Z,2.52
2023-04-15T09:24:13.420Z,2.28
2023-04-15T09:25:13.427Z,2.02
2023-04-15T09:26:13.427Z,1.71
2023-04-15T09:27:13.456Z,1.68
2023-04-15T09:28:13.483Z,1.56
2023-04-15T09:29:13.479Z,1.57
2023-04-15T09:30:13.468Z,1.27
2023-04-15T09:31:13.513Z,1.17
2023-04-15T09:32:13.465Z,1.23
2023-04-15T09:33:13.429Z,1.43
2023-04-15T09:34:13.472Z,1.28
2023-04-15T09:35:13.506Z,0.97
2023-04-15T09:36:13.542Z,1.21
2023-04-15T09:37:28.651Z,1.04
2023-04-15T09:38:14.612Z,0.90
2023-04-15T09:39:13.632Z,0.96
2023-04-15T09:40:13.596Z,0.81
2023-04-15T09:41:13.521Z,0.88
2023-04-15T09:42:13.544Z,0.79
2023-04-15T09:43:13.541Z,0.73
2023-04-15T09:44:13.536Z,0.82
2023-04-15T09:45:13.605Z,0.85
2023-04-15T09:46:13.671Z,0.89
2023-04-15T09:47:13.664Z,0.82
2023-04-15T09:48:13.750Z,0.72
2023-04-15T09:49:13.820Z,0.63
2023-04-15T09:50:13.893Z,0.78
2023-04-15T09:51:13.906Z,0.71
2023-04-15T09:52:13.980Z,0.72
2023-04-15T09:53:14.000Z,0.70
2023-04-15T09:54:14.070Z,0.97
2023-04-15T09:55:14.138Z,0.85
2023-04-15T09:56:14.239Z,1.01
2023-04-15T09:57:14.231Z,0.83
2023-04-15T09:58:14.272Z,0.88
2023-04-15T09:59:14.364Z,0.97
2023-04-15T10:00:14.385Z,0.86
2023-04-15T10:01:14.524Z,0.78
2023-04-15T10:02:14.677Z,0.92
2023-04-15T10:03:14.648Z,0.84
2023-04-15T10:04:14.730Z,0.84
2023-04-15T10:05:14.677Z,0.74
2023-04-15T10:06:14.722Z,0.77
2023-04-15T10:07:14.795Z,0.79
2023-04-15T10:08:14.842Z,0.75
2023-04-15T10:09:14.877Z,0.83
2023-04-15T10:10:14.925Z,0.89
2023-04-15T10:11:14.973Z,0.69
2023-04-15T10:12:15.009Z,0.61
2023-04-15T10:13:15.052Z,0.76
2023-04-15T10:14:15.110Z,0.78
2023-04-15T10:15:15.137Z,0.75
2023-04-15T10:16:15.289Z,0.86
2023-04-15T10:17:15.243Z,0.94
2023-04-15T10:18:15.307Z,0.90
2023-04-15T10:19:15.334Z,0.81
2023-04-15T10:20:15.452Z,0.80
2023-04-15T10:21:16.129Z,0.57
2023-04-15T10:22:15.463Z,0.84
2023-04-15T10:23:15.504Z,0.92
2023-04-15T10:24:15.569Z,0.85
2023-04-15T10:25:15.585Z,0.73
2023-04-15T10:26:15.612Z,0.65
2023-04-15T10:27:15.654Z,0.65
2023-04-15T10:28:15.733Z,0.79
2023-04-15T10:29:15.727Z,1.04
2023-04-15T10:30:15.777Z,0.60
2023-04-15T10:31:15.867Z,0.78
2023-04-15T10:32:15.857Z,0.85
2023-04-15T10:33:15.908Z,0.93
2023-04-15T10:34:15.922Z,0.73
2023-04-15T10:35:15.957Z,0.62
2023-04-15T10:36:16.043Z,0.72
2023-04-15T10:37:16.050Z,0.91
2023-04-15T10:38:16.124Z,0.88
2023-04-15T10:39:16.105Z,0.62
2023-04-15T10:40:16.176Z,0.86
2023-04-15T10:41:17.839Z,0.66
2023-04-15T10:42:16.224Z,0.76
2023-04-15T10:43:16.168Z,0.74
2023-04-15T10:44:16.187Z,0.83
2023-04-15T10:45:16.182Z,0.76
2023-04-15T10:46:16.200Z,0.77
2023-04-15T10:47:16.205Z,0.81
2023-04-15T10:48:16.162Z,0.77
2023-04-15T10:49:16.171Z,0.74
2023-04-15T10:50:16.141Z,0.61
2023-04-15T10:51:16.143Z,0.60
2023-04-15T10:52:16.127Z,0.64
2023-04-15T10:53:16.158Z,0.73
2023-04-15T10:54:16.139Z,0.99
2023-04-15T10:55:16.177Z,0.69
2023-04-15T10:56:16.101Z,0.93
2023-04-15T10:57:16.097Z,0.55
2023-04-15T10:58:16.105Z,0.77
2023-04-15T10:59:16.096Z,0.72
2023-04-15T11:00:16.079Z,0.64
2023-04-15T11:01:16.106Z,0.64
2023-04-15T11:02:16.185Z,0.97
2023-04-15T11:03:16.244Z,1.01
2023-04-15T11:04:16.154Z,0.70
2023-04-15T11:05:16.079Z,0.81
2023-04-15T11:06:16.025Z,0.86
2023-04-15T11:07:16.028Z,0.70
2023-04-15T11:08:16.010Z,0.81
2023-04-15T11:09:16.013Z,0.75
2023-04-15T11:10:16.003Z,0.74
2023-04-15T11:11:16.007Z,0.61
2023-04-15T11:12:16.031Z,0.76
2023-04-15T11:13:16.002Z,0.57
2023-04-15T11:14:15.985Z,0.59
2023-04-15T11:15:15.963Z,0.71
2023-04-15T11:16:15.986Z,0.77
2023-04-15T11:17:15.994Z,0.65
2023-04-15T11:18:15.945Z,0.80
2023-04-15T11:19:15.966Z,0.87
2023-04-15T11:20:16.007Z,0.84
2023-04-15T11:21:15.929Z,0.83
2023-04-15T11:22:15.914Z,0.90
2023-04-15T11:23:16.094Z,0.54
2023-04-15T11:24:15.907Z,0.75
2023-04-15T11:25:15.953Z,0.83
2023-04-15T11:26:15.923Z,0.66
2023-04-15T11:27:15.888Z,0.54
2023-04-15T11:28:15.865Z,0.65
2023-04-15T11:29:15.908Z,0.75
2023-04-15T11:30:15.854Z,0.52
2023-04-15T11:31:15.947Z,0.95
2023-04-15T11:32:15.930Z,0.72
2023-04-15T11:33:15.890Z,0.71
2023-04-15T11:34:15.834Z,0.66
2023-04-15T11:35:15.843Z,0.68
2023-04-15T11:36:15.851Z,0.78
2023-04-15T11:37:15.854Z,0.51
2023-04-15T11:38:15.810Z,0.83
2023-04-15T11:39:15.838Z,0.63
2023-04-15T11:40:15.848Z,0.83
2023-04-15T11:41:15.859Z,0.59
2023-04-15T11:42:15.887Z,0.75
2023-04-15T11:43:15.943Z,0.79
2023-04-15T11:44:15.935Z,0.74
2023-04-15T11:45:15.952Z,0.70
2023-04-15T11:46:16.062Z,0.70
2023-04-15T11:47:16.033Z,0.73
2023-04-15T11:48:15.990Z,0.61
2023-04-15T11:49:16.071Z,0.58
2023-04-15T11:50:16.049Z,0.58
2023-04-15T11:51:16.127Z,0.60
2023-04-15T11:52:16.126Z,0.66
2023-04-15T11:53:16.088Z,0.73
2023-04-15T11:54:16.148Z,0.70
2023-04-15T11:55:16.196Z,0.80
2023-04-15T11:56:16.195Z,0.91
2023-04-15T11:57:16.205Z,0.58
2023-04-15T11:58:16.581Z,0.62
2023-04-15T11:59:16.272Z,0.68
2023-04-15T12:00:16.279Z,0.82
2023-04-15T12:01:16.314Z,0.75
2023-04-15T12:02:16.438Z,0.76
2023-04-15T12:03:16.503Z,0.84
2023-04-15T12:04:16.495Z,0.71
2023-04-15T12:05:16.455Z,0.77
2023-04-15T12:06:16.501Z,0.74
2023-04-15T12:07:16.417Z,0.83
2023-04-15T12:08:16.442Z,0.74
2023-04-15T12:09:16.453Z,0.53
2023-04-15T12:10:16.508Z,0.60
2023-04-15T12:11:16.520Z,1.02
2023-04-15T12:12:16.522Z,0.95
2023-04-15T12:13:16.551Z,0.84
2023-04-15T12:14:16.607Z,0.90
2023-04-15T12:15:16.584Z,0.68
2023-04-15T12:16:16.684Z,0.85
2023-04-15T12:17:16.642Z,0.72
2023-04-15T12:18:16.747Z,1.04
2023-04-15T12:19:16.672Z,0.70
2023-04-15T12:20:16.692Z,0.72
2023-04-15T12:21:16.687Z,0.67
2023-04-15T12:22:16.695Z,0.87
2023-04-15T12:23:16.755Z,0.79
2023-04-15T12:24:16.790Z,0.89
2023-04-15T12:25:16.779Z,0.91
2023-04-15T12:26:16.804Z,0.63
2023-04-15T12:27:16.852Z,0.63
2023-04-15T12:28:16.827Z,0.79
2023-04-15T12:29:16.805Z,0.67
2023-04-15T12:30:16.813Z,0.68
2023-04-15T12:31:16.859Z,0.77
2023-04-15T12:32:16.882Z,0.62
2023-04-15T12:33:16.833Z,0.59
2023-04-15T12:34:16.897Z,0.74
2023-04-15T12:35:16.905Z,0.58
2023-04-15T12:36:16.901Z,0.64
2023-04-15T12:37:16.897Z,0.56
2023-04-15T12:38:16.936Z,0.61
2023-04-15T12:39:16.956Z,0.44
2023-04-15T12:40:16.946Z,0.55
2023-04-15T12:41:16.974Z,0.62
2023-04-15T12:42:17.011Z,0.82
2023-04-15T12:43:17.099Z,0.68
2023-04-15T12:44:17.033Z,0.61
2023-04-15T12:45:17.024Z,0.76
2023-04-15T12:46:17.103Z,0.77
2023-04-15T12:47:17.099Z,0.54
2023-04-15T12:48:17.117Z,0.57
2023-04-15T12:49:17.101Z,0.71
2023-04-15T12:50:17.077Z,0.50
2023-04-15T12:51:17.086Z,0.67
2023-04-15T12:52:17.085Z,0.64
2023-04-15T12:53:17.143Z,0.67
2023-04-15T12:54:17.166Z,0.99
2023-04-15T12:55:17.138Z,0.90
2023-04-15T12:56:17.175Z,0.74
2023-04-15T12:57:17.191Z,0.63
2023-04-15T12:58:17.225Z,0.73
2023-04-15T12:59:17.211Z,0.78
2023-04-15T13:00:24.718Z,0.99
